sensor_id;sensor_type;location;lat;lon;timestamp;temperature;humidity
22858;DHT22;13919;45.644;13.764;2022-08-05T00:01:11;27.20;99.90
22858;DHT22;13919;45.644;13.764;2022-08-05T00:03:37;27.20;99.90
22858;DHT22;13919;45.644;13.764;2022-08-05T00:06:03;27.10;99.90
22858;DHT22;13919;45.644;13.764;2022-08-05T00:08:28;27.20;99.90
22858;DHT22;13919;45.644;13.764;2022-08-05T00:10:54;27.20;99.90
22858;DHT22;13919;45.644;13.764;2022-08-05T00:13:20;27.10;99.90
22858;DHT22;13919;45.644;13.764;2022-08-05T00:15:46;27.10;99.90
22858;DHT22;13919;45.644;13.764;2022-08-05T00:18:11;27.10;99.90
22858;DHT22;13919;45.644;13.764;2022-08-05T00:20:37;27.10;99.90
22858;DHT22;13919;45.644;13.764;2022-08-05T00:23:03;27.20;99.90
22858;DHT22;13919;45.644;13.764;2022-08-05T00:25:28;27.20;99.90
22858;DHT22;13919;45.644;13.764;2022-08-05T00:27:54;27.20;99.90
22858;DHT22;13919;45.644;13.764;2022-08-05T00:30:20;27.20;99.90
22858;DHT22;13919;45.644;13.764;2022-08-05T00:32:45;27.20;99.90
22858;DHT22;13919;45.644;13.764;2022-08-05T00:35:11;27.20;99.90
22858;DHT22;13919;45.644;13.764;2022-08-05T00:37:37;27.20;99.90
22858;DHT22;13919;45.644;13.764;2022-08-05T00:40:03;27.10;99.90
22858;DHT22;13919;45.644;13.764;2022-08-05T00:42:36;27.10;99.90
22858;DHT22;13919;45.644;13.764;2022-08-05T00:45:04;27.10;99.90
22858;DHT22;13919;45.644;13.764;2022-08-05T00:47:31;27.10;99.90
22858;DHT22;13919;45.644;13.764;2022-08-05T00:49:56;27.10;99.90
22858;DHT22;13919;45.644;13.764;2022-08-05T00:52:22;27.10;99.90
22858;DHT22;13919;45.644;13.764;2022-08-05T00:54:48;27.10;99.90
22858;DHT22;13919;45.644;13.764;2022-08-05T00:57:14;27.10;99.90
22858;DHT22;13919;45.644;13.764;2022-08-05T00:59:40;27.10;99.90
22858;DHT22;13919;45.644;13.764;2022-08-05T01:02:06;27.10;99.90
22858;DHT22;13919;45.644;13.764;2022-08-05T01:04:32;27.10;99.90
22858;DHT22;13919;45.644;13.764;2022-08-05T01:06:57;27.10;99.90
22858;DHT22;13919;45.644;13.764;2022-08-05T01:09:23;27.10;99.90
22858;DHT22;13919;45.644;13.764;2022-08-05T01:11:51;27.00;99.90
22858;DHT22;13919;45.644;13.764;2022-08-05T01:17:13;27.00;99.90
22858;DHT22;13919;45.644;13.764;2022-08-05T01:19:54;27.00;99.90
22858;DHT22;13919;45.644;13.764;2022-08-05T01:30:30;27.00;99.90
22858;DHT22;13919;45.644;13.764;2022-08-05T01:32:59;26.90;99.90
22858;DHT22;13919;45.644;13.764;2022-08-05T01:35:30;26.90;99.90
22858;DHT22;13919;45.644;13.764;2022-08-05T01:37:58;26.80;99.90
22858;DHT22;13919;45.644;13.764;2022-08-05T01:40:28;26.80;99.90
22858;DHT22;13919;45.644;13.764;2022-08-05T01:42:56;26.80;99.90
22858;DHT22;13919;45.644;13.764;2022-08-05T01:45:23;26.80;99.90
22858;DHT22;13919;45.644;13.764;2022-08-05T01:47:53;26.80;99.90
22858;DHT22;13919;45.644;13.764;2022-08-05T01:50:25;26.80;99.90
22858;DHT22;13919;45.644;13.764;2022-08-05T01:52:53;26.80;99.90
22858;DHT22;13919;45.644;13.764;2022-08-05T01:55:21;26.80;99.90
22858;DHT22;13919;45.644;13.764;2022-08-05T01:57:50;26.80;99.90
22858;DHT22;13919;45.644;13.764;2022-08-05T02:00:17;26.70;99.90
22858;DHT22;13919;45.644;13.764;2022-08-05T02:02:49;26.60;99.90
22858;DHT22;13919;45.644;13.764;2022-08-05T02:05:19;26.70;99.90
22858;DHT22;13919;45.644;13.764;2022-08-05T02:07:45;26.70;99.90
22858;DHT22;13919;45.644;13.764;2022-08-05T02:10:11;26.60;99.90
22858;DHT22;13919;45.644;13.764;2022-08-05T02:15:07;26.70;99.90
22858;DHT22;13919;45.644;13.764;2022-08-05T02:18:14;26.70;99.90
22858;DHT22;13919;45.644;13.764;2022-08-05T02:20:45;26.70;99.90
22858;DHT22;13919;45.644;13.764;2022-08-05T02:23:12;26.70;99.90
22858;DHT22;13919;45.644;13.764;2022-08-05T02:25:41;26.60;99.90
22858;DHT22;13919;45.644;13.764;2022-08-05T02:28:09;26.50;99.90
22858;DHT22;13919;45.644;13.764;2022-08-05T02:30:43;26.50;99.90
22858;DHT22;13919;45.644;13.764;2022-08-05T02:33:10;26.50;99.90
22858;DHT22;13919;45.644;13.764;2022-08-05T02:35:40;26.50;99.90
22858;DHT22;13919;45.644;13.764;2022-08-05T02:38:08;26.40;99.90
22858;DHT22;13919;45.644;13.764;2022-08-05T17:07:31;43.50;90.50
22858;DHT22;13919;45.644;13.764;2022-08-05T17:29:28;45.50;59.70
22858;DHT22;13919;45.644;13.764;2022-08-05T17:31:54;42.90;58.70
22858;DHT22;13919;45.644;13.764;2022-08-05T17:34:19;41.60;60.40
22858;DHT22;13919;45.644;13.764;2022-08-05T17:36:45;40.80;62.30
22858;DHT22;13919;45.644;13.764;2022-08-05T17:39:11;40.10;60.10
22858;DHT22;13919;45.644;13.764;2022-08-05T17:48:56;36.40;67.50
